sensor_id;sensor_type;location;lat;lon;timestamp;P1;durP1;ratioP1;P2;durP2;ratioP2
28766;SDS011;15921;52.034;20.650;2024-02-21T00:04:45;21.05;;;6.20;;
28766;SDS011;15921;52.034;20.650;2024-02-21T00:07:11;29.65;;;7.18;;
28766;SDS011;15921;52.034;20.650;2024-02-21T00:09:37;26.88;;;6.55;;
28766;SDS011;15921;52.034;20.650;2024-02-21T00:12:02;21.92;;;6.22;;
28766;SDS011;15921;52.034;20.650;2024-02-21T00:14:30;30.02;;;6.28;;
28766;SDS011;15921;52.034;20.650;2024-02-21T00:16:56;28.70;;;6.68;;
28766;SDS011;15921;52.034;20.650;2024-02-21T00:19:21;26.30;;;6.55;;
28766;SDS011;15921;52.034;20.650;2024-02-21T00:21:47;31.15;;;6.70;;
28766;SDS011;15921;52.034;20.650;2024-02-21T00:24:13;30.15;;;7.35;;
28766;SDS011;15921;52.034;20.650;2024-02-21T00:26:38;25.42;;;6.28;;
28766;SDS011;15921;52.034;20.650;2024-02-21T00:29:04;28.05;;;6.20;;
28766;SDS011;15921;52.034;20.650;2024-02-21T00:31:30;26.10;;;7.03;;
28766;SDS011;15921;52.034;20.650;2024-02-21T00:33:56;21.33;;;5.97;;
28766;SDS011;15921;52.034;20.650;2024-02-21T00:36:22;27.20;;;7.22;;
28766;SDS011;15921;52.034;20.650;2024-02-21T00:38:48;29.63;;;6.57;;
28766;SDS011;15921;52.034;20.650;2024-02-21T00:41:14;22.13;;;6.00;;
28766;SDS011;15921;52.034;20.650;2024-02-21T00:43:39;26.38;;;6.03;;
28766;SDS011;15921;52.034;20.650;2024-02-21T00:46:06;34.00;;;5.97;;
28766;SDS011;15921;52.034;20.650;2024-02-21T00:48:32;29.35;;;7.55;;
28766;SDS011;15921;52.034;20.650;2024-02-21T00:50:59;17.98;;;6.25;;
28766;SDS011;15921;52.034;20.650;2024-02-21T00:53:25;23.58;;;5.57;;
28766;SDS011;15921;52.034;20.650;2024-02-21T00:55:50;23.40;;;5.80;;
28766;SDS011;15921;52.034;20.650;2024-02-21T00:58:16;29.00;;;6.72;;
28766;SDS011;15921;52.034;20.650;2024-02-21T01:00:41;30.83;;;6.50;;
28766;SDS011;15921;52.034;20.650;2024-02-21T01:03:07;22.50;;;6.18;;
28766;SDS011;15921;52.034;20.650;2024-02-21T01:05:33;24.50;;;7.18;;
28766;SDS011;15921;52.034;20.650;2024-02-21T01:07:58;34.35;;;7.03;;
28766;SDS011;15921;52.034;20.650;2024-02-21T01:10:24;28.65;;;7.30;;
28766;SDS011;15921;52.034;20.650;2024-02-21T01:12:50;23.23;;;7.18;;
28766;SDS011;15921;52.034;20.650;2024-02-21T01:15:16;27.75;;;7.38;;
28766;SDS011;15921;52.034;20.650;2024-02-21T01:17:42;25.00;;;7.03;;
28766;SDS011;15921;52.034;20.650;2024-02-21T01:20:08;32.03;;;7.07;;
28766;SDS011;15921;52.034;20.650;2024-02-21T01:22:34;20.23;;;7.10;;
28766;SDS011;15921;52.034;20.650;2024-02-21T01:24:59;36.40;;;7.70;;
28766;SDS011;15921;52.034;20.650;2024-02-21T01:27:25;26.85;;;7.10;;
28766;SDS011;15921;52.034;20.650;2024-02-21T01:29:51;23.98;;;7.07;;
28766;SDS011;15921;52.034;20.650;2024-02-21T01:32:17;25.73;;;7.68;;
28766;SDS011;15921;52.034;20.650;2024-02-21T01:34:42;24.30;;;7.32;;
28766;SDS011;15921;52.034;20.650;2024-02-21T01:37:08;22.83;;;7.35;;
28766;SDS011;15921;52.034;20.650;2024-02-21T01:39:34;27.98;;;7.85;;
28766;SDS011;15921;52.034;20.650;2024-02-21T01:42:00;29.60;;;7.47;;
28766;SDS011;15921;52.034;20.650;2024-02-21T01:44:26;27.27;;;6.88;;
28766;SDS011;15921;52.034;20.650;2024-02-21T01:46:52;25.02;;;7.07;;
28766;SDS011;15921;52.034;20.650;2024-02-21T01:49:18;24.95;;;7.20;;
28766;SDS011;15921;52.034;20.650;2024-02-21T01:51:45;23.50;;;7.43;;
28766;SDS011;15921;52.034;20.650;2024-02-21T01:54:12;24.88;;;7.47;;
28766;SDS011;15921;52.034;20.650;2024-02-21T01:56:39;28.10;;;7.53;;
28766;SDS011;15921;52.034;20.650;2024-02-21T01:59:04;26.48;;;8.05;;
28766;SDS011;15921;52.034;20.650;2024-02-21T02:01:30;26.00;;;8.48;;
28766;SDS011;15921;52.034;20.650;2024-02-21T02:03:56;29.58;;;8.20;;
28766;SDS011;15921;52.034;20.650;2024-02-21T02:06:24;25.52;;;8.10;;
28766;SDS011;15921;52.034;20.650;2024-02-21T02:08:50;29.15;;;7.97;;
28766;SDS011;15921;52.034;20.650;2024-02-21T02:11:16;28.80;;;8.00;;
28766;SDS011;15921;52.034;20.650;2024-02-21T02:13:42;31.23;;;8.95;;
28766;SDS011;15921;52.034;20.650;2024-02-21T02:16:08;24.85;;;9.13;;
28766;SDS011;15921;52.034;20.650;2024-02-21T02:18:33;21.75;;;9.27;;
28766;SDS011;15921;52.034;20.650;2024-02-21T02:20:59;27.02;;;8.68;;
28766;SDS011;15921;52.034;20.650;2024-02-21T02:23:25;25.73;;;8.90;;
28766;SDS011;15921;52.034;20.650;2024-02-21T02:25:58;32.10;;;8.45;;
28766;SDS011;15921;52.034;20.650;2024-02-21T02:28:24;26.52;;;9.73;;
28766;SDS011;15921;52.034;20.650;2024-02-21T02:30:50;29.42;;;10.13;;
28766;SDS011;15921;52.034;20.650;2024-02-21T02:33:16;32.22;;;9.05;;
28766;SDS011;15921;52.034;20.650;2024-02-21T02:35:45;25.67;;;10.30;;
28766;SDS011;15921;52.034;20.650;2024-02-21T02:38:11;33.70;;;10.23;;
28766;SDS011;15921;52.034;20.650;2024-02-21T02:40:38;37.63;;;10.30;;
28766;SDS011;15921;52.034;20.650;2024-02-21T02:43:05;35.78;;;10.27;;
28766;SDS011;15921;52.034;20.650;2024-02-21T02:45:31;38.50;;;10.80;;
28766;SDS011;15921;52.034;20.650;2024-02-21T02:47:58;31.15;;;10.55;;
28766;SDS011;15921;52.034;20.650;2024-02-21T02:50:24;33.20;;;10.70;;
28766;SDS011;15921;52.034;20.650;2024-02-21T02:52:51;31.63;;;10.40;;
28766;SDS011;15921;52.034;20.650;2024-02-21T02:55:18;36.95;;;10.95;;
28766;SDS011;15921;52.034;20.650;2024-02-21T02:57:43;34.95;;;10.52;;
28766;SDS011;15921;52.034;20.650;2024-02-21T03:00:10;34.55;;;9.85;;
28766;SDS011;15921;52.034;20.650;2024-02-21T03:02:37;38.45;;;11.02;;
28766;SDS011;15921;52.034;20.650;2024-02-21T03:05:12;36.08;;;10.25;;
28766;SDS011;15921;52.034;20.650;2024-02-21T03:07:42;26.80;;;9.82;;
28766;SDS011;15921;52.034;20.650;2024-02-21T03:10:09;23.15;;;9.98;;
28766;SDS011;15921;52.034;20.650;2024-02-21T03:12:35;25.50;;;9.77;;
28766;SDS011;15921;52.034;20.650;2024-02-21T03:15:02;38.67;;;10.07;;
28766;SDS011;15921;52.034;20.650;2024-02-21T03:17:28;25.65;;;9.25;;
28766;SDS011;15921;52.034;20.650;2024-02-21T03:19:54;33.70;;;9.52;;
28766;SDS011;15921;52.034;20.650;2024-02-21T03:22:20;33.45;;;10.10;;
28766;SDS011;15921;52.034;20.650;2024-02-21T03:24:46;33.00;;;8.82;;
28766;SDS011;15921;52.034;20.650;2024-02-21T03:27:12;25.23;;;8.18;;
28766;SDS011;15921;52.034;20.650;2024-02-21T03:29:38;30.13;;;8.20;;
28766;SDS011;15921;52.034;20.650;2024-02-21T03:32:03;32.67;;;8.02;;
28766;SDS011;15921;52.034;20.650;2024-02-21T03:34:29;22.88;;;7.22;;
28766;SDS011;15921;52.034;20.650;2024-02-21T03:36:55;23.25;;;7.60;;
28766;SDS011;15921;52.034;20.650;2024-02-21T03:39:21;17.42;;;6.60;;
28766;SDS011;15921;52.034;20.650;2024-02-21T03:41:47;24.83;;;6.68;;
28766;SDS011;15921;52.034;20.650;2024-02-21T03:44:13;23.23;;;6.53;;
28766;SDS011;15921;52.034;20.650;2024-02-21T03:46:38;21.48;;;6.65;;
28766;SDS011;15921;52.034;20.650;2024-02-21T03:49:04;23.35;;;6.72;;
28766;SDS011;15921;52.034;20.650;2024-02-21T03:51:30;22.70;;;6.70;;
28766;SDS011;15921;52.034;20.650;2024-02-21T03:53:56;18.88;;;7.10;;
28766;SDS011;15921;52.034;20.650;2024-02-21T03:56:22;19.38;;;6.75;;
28766;SDS011;15921;52.034;20.650;2024-02-21T03:58:47;23.70;;;7.78;;
28766;SDS011;15921;52.034;20.650;2024-02-21T04:01:14;23.33;;;7.07;;
28766;SDS011;15921;52.034;20.650;2024-02-21T04:03:40;24.35;;;7.95;;
28766;SDS011;15921;52.034;20.650;2024-02-21T04:06:09;22.58;;;8.23;;
28766;SDS011;15921;52.034;20.650;2024-02-21T04:08:35;27.25;;;8.90;;
28766;SDS011;15921;52.034;20.650;2024-02-21T04:11:01;29.88;;;10.18;;
28766;SDS011;15921;52.034;20.650;2024-02-21T04:13:27;31.05;;;10.77;;
28766;SDS011;15921;52.034;20.650;2024-02-21T04:15:53;33.10;;;11.43;;
28766;SDS011;15921;52.034;20.650;2024-02-21T04:18:18;38.00;;;10.75;;
28766;SDS011;15921;52.034;20.650;2024-02-21T04:20:44;34.78;;;11.50;;
28766;SDS011;15921;52.034;20.650;2024-02-21T04:23:10;35.75;;;11.40;;
28766;SDS011;15921;52.034;20.650;2024-02-21T04:25:36;37.60;;;13.65;;
28766;SDS011;15921;52.034;20.650;2024-02-21T04:28:01;42.13;;;14.55;;
28766;SDS011;15921;52.034;20.650;2024-02-21T04:30:28;38.55;;;13.43;;
28766;SDS011;15921;52.034;20.650;2024-02-21T04:32:54;39.30;;;13.80;;
28766;SDS011;15921;52.034;20.650;2024-02-21T04:35:19;39.92;;;15.82;;
28766;SDS011;15921;52.034;20.650;2024-02-21T04:37:45;49.35;;;19.73;;
28766;SDS011;15921;52.034;20.650;2024-02-21T04:40:11;44.35;;;16.77;;
28766;SDS011;15921;52.034;20.650;2024-02-21T04:42:38;53.42;;;18.55;;
28766;SDS011;15921;52.034;20.650;2024-02-21T04:45:04;51.63;;;17.77;;
28766;SDS011;15921;52.034;20.650;2024-02-21T04:47:30;46.45;;;18.95;;
28766;SDS011;15921;52.034;20.650;2024-02-21T04:49:56;54.05;;;18.80;;
28766;SDS011;15921;52.034;20.650;2024-02-21T04:52:21;44.92;;;17.95;;
28766;SDS011;15921;52.034;20.650;2024-02-21T04:54:47;41.70;;;17.90;;
28766;SDS011;15921;52.034;20.650;2024-02-21T04:57:12;47.33;;;18.05;;
28766;SDS011;15921;52.034;20.650;2024-02-21T04:59:42;50.30;;;17.83;;
28766;SDS011;15921;52.034;20.650;2024-02-21T05:02:09;49.85;;;17.55;;
28766;SDS011;15921;52.034;20.650;2024-02-21T05:04:36;52.25;;;17.83;;
28766;SDS011;15921;52.034;20.650;2024-02-21T05:07:03;53.10;;;17.45;;
28766;SDS011;15921;52.034;20.650;2024-02-21T05:09:29;53.08;;;17.33;;
28766;SDS011;15921;52.034;20.650;2024-02-21T05:11:55;50.10;;;17.30;;
28766;SDS011;15921;52.034;20.650;2024-02-21T05:14:20;58.40;;;19.45;;
28766;SDS011;15921;52.034;20.650;2024-02-21T05:16:46;53.83;;;17.63;;
28766;SDS011;15921;52.034;20.650;2024-02-21T05:19:12;47.13;;;18.15;;
28766;SDS011;15921;52.034;20.650;2024-02-21T05:21:37;50.58;;;17.85;;
28766;SDS011;15921;52.034;20.650;2024-02-21T05:24:03;55.33;;;18.77;;
28766;SDS011;15921;52.034;20.650;2024-02-21T05:26:29;53.25;;;18.65;;
28766;SDS011;15921;52.034;20.650;2024-02-21T05:28:55;46.75;;;18.05;;
28766;SDS011;15921;52.034;20.650;2024-02-21T05:31:20;55.83;;;19.60;;
28766;SDS011;15921;52.034;20.650;2024-02-21T05:33:46;53.78;;;19.17;;
28766;SDS011;15921;52.034;20.650;2024-02-21T05:36:12;51.03;;;18.58;;
28766;SDS011;15921;52.034;20.650;2024-02-21T05:38:38;52.85;;;18.02;;
28766;SDS011;15921;52.034;20.650;2024-02-21T05:41:04;57.63;;;20.45;;
28766;SDS011;15921;52.034;20.650;2024-02-21T05:43:31;50.05;;;19.10;;
28766;SDS011;15921;52.034;20.650;2024-02-21T05:45:56;55.42;;;19.58;;
28766;SDS011;15921;52.034;20.650;2024-02-21T05:48:22;49.97;;;19.17;;
28766;SDS011;15921;52.034;20.650;2024-02-21T05:50:48;54.42;;;19.63;;
28766;SDS011;15921;52.034;20.650;2024-02-21T05:53:15;62.22;;;20.83;;
28766;SDS011;15921;52.034;20.650;2024-02-21T05:55:40;68.53;;;22.20;;
28766;SDS011;15921;52.034;20.650;2024-02-21T05:58:06;72.72;;;21.67;;
28766;SDS011;15921;52.034;20.650;2024-02-21T06:00:35;55.17;;;19.83;;
28766;SDS011;15921;52.034;20.650;2024-02-21T06:03:00;60.55;;;21.27;;
28766;SDS011;15921;52.034;20.650;2024-02-21T06:05:27;71.15;;;21.65;;
28766;SDS011;15921;52.034;20.650;2024-02-21T06:07:53;65.57;;;20.88;;
28766;SDS011;15921;52.034;20.650;2024-02-21T06:10:21;65.30;;;20.40;;
28766;SDS011;15921;52.034;20.650;2024-02-21T06:12:47;66.30;;;22.05;;
28766;SDS011;15921;52.034;20.650;2024-02-21T06:15:12;63.72;;;21.23;;
28766;SDS011;15921;52.034;20.650;2024-02-21T06:17:38;67.68;;;22.52;;
28766;SDS011;15921;52.034;20.650;2024-02-21T06:20:04;57.80;;;21.20;;
28766;SDS011;15921;52.034;20.650;2024-02-21T06:22:30;62.38;;;21.17;;
28766;SDS011;15921;52.034;20.650;2024-02-21T06:24:56;62.95;;;21.10;;
28766;SDS011;15921;52.034;20.650;2024-02-21T06:27:22;60.13;;;21.40;;
28766;SDS011;15921;52.034;20.650;2024-02-21T06:29:49;58.25;;;22.50;;
28766;SDS011;15921;52.034;20.650;2024-02-21T06:32:15;68.97;;;23.00;;
28766;SDS011;15921;52.034;20.650;2024-02-21T06:34:41;70.93;;;22.33;;
28766;SDS011;15921;52.034;20.650;2024-02-21T06:37:06;60.03;;;22.23;;
28766;SDS011;15921;52.034;20.650;2024-02-21T06:39:32;73.35;;;22.85;;
28766;SDS011;15921;52.034;20.650;2024-02-21T06:41:58;73.00;;;22.52;;
28766;SDS011;15921;52.034;20.650;2024-02-21T06:44:23;68.50;;;21.67;;
28766;SDS011;15921;52.034;20.650;2024-02-21T06:46:49;70.60;;;22.15;;
28766;SDS011;15921;52.034;20.650;2024-02-21T06:49:15;65.47;;;22.52;;
28766;SDS011;15921;52.034;20.650;2024-02-21T06:51:43;64.18;;;20.88;;
28766;SDS011;15921;52.034;20.650;2024-02-21T06:54:09;53.05;;;19.48;;
28766;SDS011;15921;52.034;20.650;2024-02-21T06:56:36;62.92;;;22.77;;
28766;SDS011;15921;52.034;20.650;2024-02-21T06:59:02;71.05;;;21.40;;
28766;SDS011;15921;52.034;20.650;2024-02-21T07:01:31;59.72;;;21.80;;
28766;SDS011;15921;52.034;20.650;2024-02-21T07:03:57;64.30;;;20.23;;
28766;SDS011;15921;52.034;20.650;2024-02-21T07:06:23;67.93;;;22.52;;
28766;SDS011;15921;52.034;20.650;2024-02-21T07:08:49;57.70;;;20.92;;
28766;SDS011;15921;52.034;20.650;2024-02-21T07:11:15;59.55;;;21.08;;
28766;SDS011;15921;52.034;20.650;2024-02-21T07:13:40;65.28;;;22.58;;
28766;SDS011;15921;52.034;20.650;2024-02-21T07:16:06;74.15;;;22.30;;
28766;SDS011;15921;52.034;20.650;2024-02-21T07:18:32;67.25;;;22.55;;
28766;SDS011;15921;52.034;20.650;2024-02-21T07:20:58;64.90;;;22.02;;
28766;SDS011;15921;52.034;20.650;2024-02-21T07:23:24;71.28;;;22.15;;
28766;SDS011;15921;52.034;20.650;2024-02-21T07:25:51;62.72;;;22.23;;
28766;SDS011;15921;52.034;20.650;2024-02-21T07:28:16;64.45;;;22.70;;
28766;SDS011;15921;52.034;20.650;2024-02-21T07:30:42;58.85;;;21.92;;
28766;SDS011;15921;52.034;20.650;2024-02-21T07:33:08;77.97;;;22.70;;
28766;SDS011;15921;52.034;20.650;2024-02-21T07:35:34;61.92;;;21.38;;
28766;SDS011;15921;52.034;20.650;2024-02-21T07:38:03;62.78;;;22.42;;
28766;SDS011;15921;52.034;20.650;2024-02-21T07:40:30;59.47;;;21.27;;
28766;SDS011;15921;52.034;20.650;2024-02-21T07:42:56;69.35;;;21.70;;
28766;SDS011;15921;52.034;20.650;2024-02-21T07:45:21;56.72;;;20.42;;
28766;SDS011;15921;52.034;20.650;2024-02-21T07:47:49;58.03;;;20.85;;
28766;SDS011;15921;52.034;20.650;2024-02-21T07:50:15;65.90;;;19.83;;
28766;SDS011;15921;52.034;20.650;2024-02-21T07:52:41;59.80;;;20.27;;
28766;SDS011;15921;52.034;20.650;2024-02-21T07:55:07;50.88;;;18.27;;
28766;SDS011;15921;52.034;20.650;2024-02-21T07:57:35;63.50;;;19.45;;
28766;SDS011;15921;52.034;20.650;2024-02-21T08:00:01;58.10;;;18.42;;
28766;SDS011;15921;52.034;20.650;2024-02-21T08:02:29;53.95;;;18.08;;
28766;SDS011;15921;52.034;20.650;2024-02-21T08:04:54;55.63;;;18.85;;
28766;SDS011;15921;52.034;20.650;2024-02-21T08:07:20;49.03;;;17.70;;
28766;SDS011;15921;52.034;20.650;2024-02-21T08:09:46;44.70;;;16.20;;
28766;SDS011;15921;52.034;20.650;2024-02-21T08:12:11;48.35;;;16.98;;
28766;SDS011;15921;52.034;20.650;2024-02-21T08:14:37;55.67;;;18.10;;
28766;SDS011;15921;52.034;20.650;2024-02-21T08:17:03;40.65;;;16.67;;
28766;SDS011;15921;52.034;20.650;2024-02-21T08:19:29;51.80;;;15.73;;
28766;SDS011;15921;52.034;20.650;2024-02-21T08:21:55;47.33;;;16.00;;
28766;SDS011;15921;52.034;20.650;2024-02-21T08:24:20;42.90;;;16.25;;
28766;SDS011;15921;52.034;20.650;2024-02-21T08:26:47;54.72;;;16.33;;
28766;SDS011;15921;52.034;20.650;2024-02-21T08:29:13;47.17;;;16.63;;
28766;SDS011;15921;52.034;20.650;2024-02-21T08:31:39;43.45;;;15.32;;
28766;SDS011;15921;52.034;20.650;2024-02-21T08:34:05;48.30;;;15.07;;
28766;SDS011;15921;52.034;20.650;2024-02-21T08:36:31;45.95;;;15.25;;
28766;SDS011;15921;52.034;20.650;2024-02-21T08:38:57;44.47;;;15.00;;
28766;SDS011;15921;52.034;20.650;2024-02-21T08:41:26;47.63;;;15.55;;
28766;SDS011;15921;52.034;20.650;2024-02-21T08:43:52;45.72;;;15.50;;
28766;SDS011;15921;52.034;20.650;2024-02-21T08:46:19;43.30;;;15.18;;
28766;SDS011;15921;52.034;20.650;2024-02-21T08:48:46;51.05;;;14.98;;
28766;SDS011;15921;52.034;20.650;2024-02-21T08:51:12;44.17;;;14.07;;
28766;SDS011;15921;52.034;20.650;2024-02-21T08:53:38;46.92;;;15.07;;
28766;SDS011;15921;52.034;20.650;2024-02-21T08:56:05;44.40;;;15.20;;
28766;SDS011;15921;52.034;20.650;2024-02-21T08:58:32;42.75;;;14.00;;
28766;SDS011;15921;52.034;20.650;2024-02-21T09:00:58;43.17;;;13.57;;
28766;SDS011;15921;52.034;20.650;2024-02-21T09:03:24;49.95;;;13.75;;
28766;SDS011;15921;52.034;20.650;2024-02-21T09:05:50;48.47;;;14.90;;
28766;SDS011;15921;52.034;20.650;2024-02-21T09:08:16;37.47;;;13.27;;
28766;SDS011;15921;52.034;20.650;2024-02-21T09:10:41;39.83;;;13.10;;
28766;SDS011;15921;52.034;20.650;2024-02-21T09:13:07;43.60;;;14.15;;
28766;SDS011;15921;52.034;20.650;2024-02-21T09:15:33;37.58;;;12.68;;
28766;SDS011;15921;52.034;20.650;2024-02-21T09:17:59;42.70;;;12.38;;
28766;SDS011;15921;52.034;20.650;2024-02-21T09:20:25;34.72;;;10.70;;
28766;SDS011;15921;52.034;20.650;2024-02-21T09:22:51;34.45;;;11.38;;
28766;SDS011;15921;52.034;20.650;2024-02-21T09:25:18;34.13;;;10.35;;
28766;SDS011;15921;52.034;20.650;2024-02-21T09:27:44;30.83;;;10.30;;
28766;SDS011;15921;52.034;20.650;2024-02-21T09:30:10;37.25;;;11.40;;
28766;SDS011;15921;52.034;20.650;2024-02-21T09:32:36;31.17;;;10.07;;
28766;SDS011;15921;52.034;20.650;2024-02-21T09:35:02;33.10;;;11.20;;
28766;SDS011;15921;52.034;20.650;2024-02-21T09:37:28;28.73;;;9.95;;
28766;SDS011;15921;52.034;20.650;2024-02-21T09:39:54;31.38;;;9.48;;
28766;SDS011;15921;52.034;20.650;2024-02-21T09:42:20;30.20;;;10.05;;
28766;SDS011;15921;52.034;20.650;2024-02-21T09:44:49;32.25;;;10.05;;
28766;SDS011;15921;52.034;20.650;2024-02-21T09:47:22;29.65;;;10.20;;
28766;SDS011;15921;52.034;20.650;2024-02-21T09:49:49;40.30;;;12.20;;
28766;SDS011;15921;52.034;20.650;2024-02-21T09:52:17;33.67;;;11.15;;
28766;SDS011;15921;52.034;20.650;2024-02-21T09:54:44;50.13;;;12.95;;
28766;SDS011;15921;52.034;20.650;2024-02-21T09:57:10;31.00;;;11.05;;
28766;SDS011;15921;52.034;20.650;2024-02-21T09:59:36;35.30;;;11.90;;
28766;SDS011;15921;52.034;20.650;2024-02-21T10:02:02;35.70;;;12.40;;
28766;SDS011;15921;52.034;20.650;2024-02-21T10:04:30;39.55;;;12.52;;
28766;SDS011;15921;52.034;20.650;2024-02-21T10:06:56;38.83;;;12.82;;
28766;SDS011;15921;52.034;20.650;2024-02-21T10:09:28;33.83;;;12.75;;
28766;SDS011;15921;52.034;20.650;2024-02-21T10:11:54;33.03;;;13.43;;
28766;SDS011;15921;52.034;20.650;2024-02-21T10:14:20;35.13;;;13.18;;
28766;SDS011;15921;52.034;20.650;2024-02-21T10:16:47;36.13;;;13.13;;
28766;SDS011;15921;52.034;20.650;2024-02-21T10:19:19;44.50;;;13.13;;
28766;SDS011;15921;52.034;20.650;2024-02-21T10:24:37;39.15;;;14.80;;
28766;SDS011;15921;52.034;20.650;2024-02-21T10:27:06;41.92;;;15.07;;
28766;SDS011;15921;52.034;20.650;2024-02-21T10:29:36;32.53;;;14.40;;
28766;SDS011;15921;52.034;20.650;2024-02-21T10:32:03;28.27;;;14.43;;
28766;SDS011;15921;52.034;20.650;2024-02-21T10:34:33;40.63;;;14.93;;
28766;SDS011;15921;52.034;20.650;2024-02-21T10:37:00;35.55;;;15.13;;
28766;SDS011;15921;52.034;20.650;2024-02-21T10:39:32;30.40;;;14.85;;
28766;SDS011;15921;52.034;20.650;2024-02-21T10:42:02;41.72;;;17.05;;
28766;SDS011;15921;52.034;20.650;2024-02-21T10:44:29;43.92;;;14.52;;
28766;SDS011;15921;52.034;20.650;2024-02-21T10:46:56;37.78;;;15.65;;
28766;SDS011;15921;52.034;20.650;2024-02-21T10:49:23;38.75;;;15.63;;
28766;SDS011;15921;52.034;20.650;2024-02-21T10:51:50;44.17;;;15.40;;
28766;SDS011;15921;52.034;20.650;2024-02-21T10:54:33;42.78;;;16.02;;
28766;SDS011;15921;52.034;20.650;2024-02-21T10:57:10;32.20;;;14.90;;
28766;SDS011;15921;52.034;20.650;2024-02-21T10:59:38;39.60;;;15.10;;
28766;SDS011;15921;52.034;20.650;2024-02-21T11:02:05;40.05;;;15.00;;
28766;SDS011;15921;52.034;20.650;2024-02-21T11:04:31;42.08;;;14.70;;
28766;SDS011;15921;52.034;20.650;2024-02-21T11:07:03;40.80;;;15.35;;
28766;SDS011;15921;52.034;20.650;2024-02-21T11:09:30;39.58;;;15.52;;
28766;SDS011;15921;52.034;20.650;2024-02-21T11:11:57;43.58;;;15.32;;
28766;SDS011;15921;52.034;20.650;2024-02-21T11:14:25;40.85;;;14.75;;
28766;SDS011;15921;52.034;20.650;2024-02-21T11:16:52;38.55;;;15.63;;
28766;SDS011;15921;52.034;20.650;2024-02-21T11:19:21;41.13;;;15.02;;
28766;SDS011;15921;52.034;20.650;2024-02-21T11:21:49;38.10;;;15.40;;
28766;SDS011;15921;52.034;20.650;2024-02-21T11:24:36;41.53;;;14.55;;
28766;SDS011;15921;52.034;20.650;2024-02-21T11:27:09;38.08;;;15.07;;
28766;SDS011;15921;52.034;20.650;2024-02-21T11:29:48;30.95;;;14.35;;
28766;SDS011;15921;52.034;20.650;2024-02-21T11:32:19;37.97;;;15.07;;
28766;SDS011;15921;52.034;20.650;2024-02-21T11:34:55;45.15;;;15.57;;
28766;SDS011;15921;52.034;20.650;2024-02-21T11:37:27;34.47;;;13.95;;
28766;SDS011;15921;52.034;20.650;2024-02-21T11:39:57;39.20;;;14.85;;
28766;SDS011;15921;52.034;20.650;2024-02-21T11:42:24;43.80;;;16.13;;
28766;SDS011;15921;52.034;20.650;2024-02-21T11:44:51;34.50;;;14.88;;
28766;SDS011;15921;52.034;20.650;2024-02-21T11:47:18;35.70;;;15.20;;
28766;SDS011;15921;52.034;20.650;2024-02-21T11:49:47;40.03;;;15.02;;
28766;SDS011;15921;52.034;20.650;2024-02-21T11:52:15;38.80;;;15.25;;
28766;SDS011;15921;52.034;20.650;2024-02-21T11:54:43;41.38;;;16.05;;
28766;SDS011;15921;52.034;20.650;2024-02-21T11:57:10;40.97;;;15.82;;
28766;SDS011;15921;52.034;20.650;2024-02-21T11:59:39;44.63;;;15.70;;
28766;SDS011;15921;52.034;20.650;2024-02-21T12:02:06;40.85;;;15.13;;
28766;SDS011;15921;52.034;20.650;2024-02-21T12:04:32;42.83;;;15.82;;
28766;SDS011;15921;52.034;20.650;2024-02-21T12:06:58;43.47;;;15.80;;
28766;SDS011;15921;52.034;20.650;2024-02-21T12:09:25;30.95;;;14.45;;
28766;SDS011;15921;52.034;20.650;2024-02-21T12:12:01;40.55;;;15.25;;
28766;SDS011;15921;52.034;20.650;2024-02-21T12:14:30;34.88;;;15.23;;
28766;SDS011;15921;52.034;20.650;2024-02-21T12:16:57;44.75;;;15.18;;
28766;SDS011;15921;52.034;20.650;2024-02-21T12:19:29;38.00;;;15.23;;
28766;SDS011;15921;52.034;20.650;2024-02-21T12:21:56;36.15;;;15.45;;
28766;SDS011;15921;52.034;20.650;2024-02-21T12:24:24;36.95;;;14.40;;
28766;SDS011;15921;52.034;20.650;2024-02-21T12:26:51;43.42;;;14.82;;
28766;SDS011;15921;52.034;20.650;2024-02-21T12:29:17;32.83;;;14.65;;
28766;SDS011;15921;52.034;20.650;2024-02-21T12:31:47;36.88;;;13.70;;
28766;SDS011;15921;52.034;20.650;2024-02-21T12:34:14;39.83;;;14.70;;
28766;SDS011;15921;52.034;20.650;2024-02-21T12:36:41;29.48;;;14.80;;
28766;SDS011;15921;52.034;20.650;2024-02-21T12:39:08;42.15;;;15.43;;
28766;SDS011;15921;52.034;20.650;2024-02-21T12:41:35;36.25;;;15.68;;
28766;SDS011;15921;52.034;20.650;2024-02-21T12:44:04;49.42;;;17.45;;
28766;SDS011;15921;52.034;20.650;2024-02-21T12:46:32;40.40;;;15.70;;
28766;SDS011;15921;52.034;20.650;2024-02-21T12:48:58;45.53;;;15.25;;
28766;SDS011;15921;52.034;20.650;2024-02-21T12:51:24;38.88;;;14.75;;
28766;SDS011;15921;52.034;20.650;2024-02-21T12:53:50;34.58;;;14.23;;
28766;SDS011;15921;52.034;20.650;2024-02-21T12:56:16;37.90;;;14.95;;
28766;SDS011;15921;52.034;20.650;2024-02-21T12:58:42;41.30;;;14.45;;
28766;SDS011;15921;52.034;20.650;2024-02-21T13:01:07;39.38;;;13.45;;
28766;SDS011;15921;52.034;20.650;2024-02-21T13:03:34;36.67;;;12.98;;
28766;SDS011;15921;52.034;20.650;2024-02-21T13:05:59;36.67;;;13.52;;
28766;SDS011;15921;52.034;20.650;2024-02-21T13:08:25;38.70;;;13.38;;
28766;SDS011;15921;52.034;20.650;2024-02-21T13:10:51;35.63;;;13.35;;
28766;SDS011;15921;52.034;20.650;2024-02-21T13:13:16;32.25;;;13.15;;
28766;SDS011;15921;52.034;20.650;2024-02-21T13:15:42;28.70;;;12.57;;
28766;SDS011;15921;52.034;20.650;2024-02-21T13:18:08;41.80;;;13.75;;
28766;SDS011;15921;52.034;20.650;2024-02-21T13:20:34;40.22;;;14.52;;
28766;SDS011;15921;52.034;20.650;2024-02-21T13:23:00;39.92;;;13.38;;
28766;SDS011;15921;52.034;20.650;2024-02-21T13:25:26;28.60;;;12.27;;
28766;SDS011;15921;52.034;20.650;2024-02-21T13:27:52;40.70;;;12.27;;
28766;SDS011;15921;52.034;20.650;2024-02-21T13:30:17;31.10;;;12.55;;
28766;SDS011;15921;52.034;20.650;2024-02-21T13:32:44;44.25;;;13.13;;
28766;SDS011;15921;52.034;20.650;2024-02-21T13:35:12;32.95;;;12.15;;
28766;SDS011;15921;52.034;20.650;2024-02-21T13:37:39;32.53;;;13.10;;
28766;SDS011;15921;52.034;20.650;2024-02-21T13:40:05;30.27;;;12.32;;
28766;SDS011;15921;52.034;20.650;2024-02-21T13:42:34;34.17;;;12.23;;
28766;SDS011;15921;52.034;20.650;2024-02-21T13:44:59;33.17;;;12.90;;
28766;SDS011;15921;52.034;20.650;2024-02-21T13:47:26;41.85;;;13.70;;
28766;SDS011;15921;52.034;20.650;2024-02-21T13:49:51;34.75;;;11.57;;
28766;SDS011;15921;52.034;20.650;2024-02-21T13:52:17;39.92;;;12.68;;
28766;SDS011;15921;52.034;20.650;2024-02-21T13:54:46;33.80;;;12.52;;
28766;SDS011;15921;52.034;20.650;2024-02-21T13:57:11;29.63;;;12.02;;
28766;SDS011;15921;52.034;20.650;2024-02-21T13:59:37;31.13;;;10.55;;
28766;SDS011;15921;52.034;20.650;2024-02-21T14:02:04;36.88;;;12.20;;
28766;SDS011;15921;52.034;20.650;2024-02-21T14:04:33;31.98;;;11.48;;
28766;SDS011;15921;52.034;20.650;2024-02-21T14:06:59;32.88;;;11.00;;
28766;SDS011;15921;52.034;20.650;2024-02-21T14:09:25;24.30;;;10.10;;
28766;SDS011;15921;52.034;20.650;2024-02-21T14:11:51;32.42;;;11.10;;
28766;SDS011;15921;52.034;20.650;2024-02-21T14:14:17;30.40;;;9.98;;